sensor_id;sensor_type;location;lat;lon;timestamp;pressure;altitude;pressure_sealevel;temperature;humidity
20930;BME280;21895;47.072;15.132;2023-04-28T00:01:12;97075.00;;;9.49;72.49
20930;BME280;21895;47.072;15.132;2023-04-28T00:03:38;97077.00;;;9.46;71.93
20930;BME280;21895;47.072;15.132;2023-04-28T00:06:05;97076.00;;;9.12;72.02
20930;BME280;21895;47.072;15.132;2023-04-28T00:08:32;97075.00;;;9.08;72.33
20930;BME280;21895;47.072;15.132;2023-04-28T00:10:58;97076.00;;;8.99;72.48
20930;BME280;21895;47.072;15.132;2023-04-28T00:13:26;97080.00;;;8.80;72.62
20930;BME280;21895;47.072;15.132;2023-04-28T00:15:53;97068.00;;;8.66;73.02
20930;BME280;21895;47.072;15.132;2023-04-28T00:18:20;97070.00;;;8.67;73.03
20930;BME280;21895;47.072;15.132;2023-04-28T00:20:47;97073.00;;;8.55;73.43
20930;BME280;21895;47.072;15.132;2023-04-28T00:23:14;97073.00;;;8.59;73.61
20930;BME280;21895;47.072;15.132;2023-04-28T00:25:40;97069.00;;;8.63;73.01
20930;BME280;21895;47.072;15.132;2023-04-28T00:28:07;97064.00;;;8.52;73.24
20930;BME280;21895;47.072;15.132;2023-04-28T00:30:34;97070.00;;;8.43;73.91
20930;BME280;21895;47.072;15.132;2023-04-28T00:33:02;97068.00;;;8.30;73.84
20930;BME280;21895;47.072;15.132;2023-04-28T00:35:29;97069.00;;;8.31;73.66
20930;BME280;21895;47.072;15.132;2023-04-28T00:37:56;97062.00;;;8.22;72.53
20930;BME280;21895;47.072;15.132;2023-04-28T00:40:22;97073.00;;;8.19;72.28
20930;BME280;21895;47.072;15.132;2023-04-28T00:42:49;97066.00;;;8.08;72.09
20930;BME280;21895;47.072;15.132;2023-04-28T00:45:15;97064.00;;;8.00;72.63
20930;BME280;21895;47.072;15.132;2023-04-28T00:47:42;97061.00;;;7.91;73.42
20930;BME280;21895;47.072;15.132;2023-04-28T00:50:09;97060.00;;;7.92;73.29
20930;BME280;21895;47.072;15.132;2023-04-28T00:52:37;97065.00;;;7.84;73.94
20930;BME280;21895;47.072;15.132;2023-04-28T00:55:06;97058.00;;;7.88;74.06
20930;BME280;21895;47.072;15.132;2023-04-28T00:57:33;97061.00;;;7.98;73.78
20930;BME280;21895;47.072;15.132;2023-04-28T01:00:01;97053.00;;;7.95;73.78
20930;BME280;21895;47.072;15.132;2023-04-28T01:02:28;97051.00;;;7.82;73.51
20930;BME280;21895;47.072;15.132;2023-04-28T01:04:57;97062.00;;;7.89;73.51
20930;BME280;21895;47.072;15.132;2023-04-28T01:07:24;97058.00;;;7.79;73.83
20930;BME280;21895;47.072;15.132;2023-04-28T01:09:50;97063.00;;;7.63;74.11
20930;BME280;21895;47.072;15.132;2023-04-28T01:12:17;97066.00;;;7.61;73.55
20930;BME280;21895;47.072;15.132;2023-04-28T01:14:43;97060.00;;;7.58;73.32
20930;BME280;21895;47.072;15.132;2023-04-28T01:17:10;97062.00;;;7.59;73.12
20930;BME280;21895;47.072;15.132;2023-04-28T01:19:37;97066.00;;;7.60;73.48
20930;BME280;21895;47.072;15.132;2023-04-28T01:22:06;97066.00;;;7.48;74.11
20930;BME280;21895;47.072;15.132;2023-04-28T01:24:35;97066.00;;;7.45;74.31
20930;BME280;21895;47.072;15.132;2023-04-28T01:27:02;97064.00;;;7.37;74.35
20930;BME280;21895;47.072;15.132;2023-04-28T01:29:28;97053.00;;;7.22;73.96
20930;BME280;21895;47.072;15.132;2023-04-28T01:31:55;97050.00;;;7.19;73.73
20930;BME280;21895;47.072;15.132;2023-04-28T01:34:22;97050.00;;;7.15;73.38
20930;BME280;21895;47.072;15.132;2023-04-28T01:36:48;97045.00;;;7.05;73.39
20930;BME280;21895;47.072;15.132;2023-04-28T01:39:15;97051.00;;;6.99;73.27
20930;BME280;21895;47.072;15.132;2023-04-28T01:41:42;97044.00;;;7.05;73.95
20930;BME280;21895;47.072;15.132;2023-04-28T01:44:08;97046.00;;;7.06;74.20
20930;BME280;21895;47.072;15.132;2023-04-28T01:46:36;97042.00;;;6.94;74.89
20930;BME280;21895;47.072;15.132;2023-04-28T01:49:03;97031.00;;;7.01;75.39
20930;BME280;21895;47.072;15.132;2023-04-28T01:51:30;97034.00;;;7.15;75.62
20930;BME280;21895;47.072;15.132;2023-04-28T01:53:57;97042.00;;;7.25;75.34
20930;BME280;21895;47.072;15.132;2023-04-28T01:56:24;97045.00;;;7.13;74.67
20930;BME280;21895;47.072;15.132;2023-04-28T01:58:51;97041.00;;;7.13;74.12
20930;BME280;21895;47.072;15.132;2023-04-28T02:01:17;97040.00;;;7.00;73.78
20930;BME280;21895;47.072;15.132;2023-04-28T02:03:44;97044.00;;;6.88;73.57
20930;BME280;21895;47.072;15.132;2023-04-28T02:06:11;97039.00;;;6.86;73.79
20930;BME280;21895;47.072;15.132;2023-04-28T02:08:37;97044.00;;;6.82;74.31
20930;BME280;21895;47.072;15.132;2023-04-28T02:11:04;97046.00;;;6.99;74.72
20930;BME280;21895;47.072;15.132;2023-04-28T02:13:30;97048.00;;;7.14;74.56
20930;BME280;21895;47.072;15.132;2023-04-28T02:16:00;97053.00;;;7.13;74.36
20930;BME280;21895;47.072;15.132;2023-04-28T02:18:27;97056.00;;;7.00;73.12
20930;BME280;21895;47.072;15.132;2023-04-28T02:20:54;97053.00;;;6.85;74.23
20930;BME280;21895;47.072;15.132;2023-04-28T02:23:20;97042.00;;;7.04;74.27
20930;BME280;21895;47.072;15.132;2023-04-28T02:25:47;97045.00;;;7.12;74.45
20930;BME280;21895;47.072;15.132;2023-04-28T02:28:13;97044.00;;;7.18;74.13
20930;BME280;21895;47.072;15.132;2023-04-28T02:30:40;97051.00;;;7.17;73.59
20930;BME280;21895;47.072;15.132;2023-04-28T02:33:06;97041.00;;;7.01;73.06
20930;BME280;21895;47.072;15.132;2023-04-28T02:35:33;97047.00;;;6.77;73.41
20930;BME280;21895;47.072;15.132;2023-04-28T02:37:59;97045.00;;;6.75;73.71
20930;BME280;21895;47.072;15.132;2023-04-28T02:40:26;97044.00;;;6.73;74.15
20930;BME280;21895;47.072;15.132;2023-04-28T02:42:52;97045.00;;;6.67;74.11
20930;BME280;21895;47.072;15.132;2023-04-28T02:45:19;97040.00;;;6.64;74.28
20930;BME280;21895;47.072;15.132;2023-04-28T02:47:46;97039.00;;;6.65;74.62
20930;BME280;21895;47.072;15.132;2023-04-28T02:50:12;97036.00;;;6.53;74.47
20930;BME280;21895;47.072;15.132;2023-04-28T02:52:39;97043.00;;;6.56;74.60
20930;BME280;21895;47.072;15.132;2023-04-28T02:55:06;97046.00;;;6.52;74.54
20930;BME280;21895;47.072;15.132;2023-04-28T02:57:32;97047.00;;;6.44;74.40
20930;BME280;21895;47.072;15.132;2023-04-28T02:59:59;97048.00;;;6.41;74.76
20930;BME280;21895;47.072;15.132;2023-04-28T03:02:26;97048.00;;;6.44;74.55
20930;BME280;21895;47.072;15.132;2023-04-28T03:04:52;97041.00;;;6.30;74.82
20930;BME280;21895;47.072;15.132;2023-04-28T03:07:19;97039.00;;;6.27;74.39
20930;BME280;21895;47.072;15.132;2023-04-28T03:09:45;97023.00;;;6.32;73.96
20930;BME280;21895;47.072;15.132;2023-04-28T03:12:12;97019.00;;;6.21;73.62
20930;BME280;21895;47.072;15.132;2023-04-28T03:14:38;97025.00;;;6.04;74.32
20930;BME280;21895;47.072;15.132;2023-04-28T03:17:05;97031.00;;;5.98;75.13
20930;BME280;21895;47.072;15.132;2023-04-28T03:19:31;97034.00;;;6.03;75.64
20930;BME280;21895;47.072;15.132;2023-04-28T03:21:58;97026.00;;;6.07;75.96
20930;BME280;21895;47.072;15.132;2023-04-28T03:24:24;97024.00;;;6.03;75.82
20930;BME280;21895;47.072;15.132;2023-04-28T03:26:51;97023.00;;;6.20;75.91
20930;BME280;21895;47.072;15.132;2023-04-28T03:29:17;97019.00;;;6.20;76.19
20930;BME280;21895;47.072;15.132;2023-04-28T03:31:44;97022.00;;;6.35;75.61
20930;BME280;21895;47.072;15.132;2023-04-28T03:34:11;97018.00;;;6.31;75.53
20930;BME280;21895;47.072;15.132;2023-04-28T03:36:37;97015.00;;;6.39;75.34
20930;BME280;21895;47.072;15.132;2023-04-28T03:39:03;97014.00;;;6.30;74.91
20930;BME280;21895;47.072;15.132;2023-04-28T03:41:30;97018.00;;;6.30;74.31
20930;BME280;21895;47.072;15.132;2023-04-28T03:43:56;97022.00;;;6.30;73.87
20930;BME280;21895;47.072;15.132;2023-04-28T03:46:23;97023.00;;;6.26;74.53
20930;BME280;21895;47.072;15.132;2023-04-28T03:48:50;97024.00;;;6.29;74.90
20930;BME280;21895;47.072;15.132;2023-04-28T03:51:16;97023.00;;;6.30;74.50
20930;BME280;21895;47.072;15.132;2023-04-28T03:53:43;97015.00;;;6.20;74.37
20930;BME280;21895;47.072;15.132;2023-04-28T03:56:09;97019.00;;;6.21;74.74
20930;BME280;21895;47.072;15.132;2023-04-28T03:58:36;97020.00;;;6.18;75.36
20930;BME280;21895;47.072;15.132;2023-04-28T04:01:03;97023.00;;;6.27;75.13
20930;BME280;21895;47.072;15.132;2023-04-28T04:03:30;97017.00;;;6.43;74.32
20930;BME280;21895;47.072;15.132;2023-04-28T04:05:57;97020.00;;;6.46;74.20
20930;BME280;21895;47.072;15.132;2023-04-28T04:08:24;97023.00;;;6.42;74.57
20930;BME280;21895;47.072;15.132;2023-04-28T04:10:51;97026.00;;;6.60;74.69
20930;BME280;21895;47.072;15.132;2023-04-28T04:13:18;97018.00;;;6.75;74.27
20930;BME280;21895;47.072;15.132;2023-04-28T04:15:44;97027.00;;;6.74;73.93
20930;BME280;21895;47.072;15.132;2023-04-28T04:18:11;97023.00;;;6.68;74.38
20930;BME280;21895;47.072;15.132;2023-04-28T04:20:38;97021.00;;;6.77;74.62
20930;BME280;21895;47.072;15.132;2023-04-28T04:23:04;97022.00;;;6.97;74.17
20930;BME280;21895;47.072;15.132;2023-04-28T04:25:31;97018.00;;;7.01;73.96
20930;BME280;21895;47.072;15.132;2023-04-28T04:27:58;97017.00;;;6.93;74.06
20930;BME280;21895;47.072;15.132;2023-04-28T04:30:25;97012.00;;;7.08;74.06
20930;BME280;21895;47.072;15.132;2023-04-28T04:32:51;97007.00;;;7.24;73.68
20930;BME280;21895;47.072;15.132;2023-04-28T04:35:18;97013.00;;;7.32;73.44
20930;BME280;21895;47.072;15.132;2023-04-28T04:37:44;97022.00;;;7.40;73.29
20930;BME280;21895;47.072;15.132;2023-04-28T04:40:11;97016.00;;;7.40;73.54
20930;BME280;21895;47.072;15.132;2023-04-28T04:42:38;97009.00;;;7.36;73.74
20930;BME280;21895;47.072;15.132;2023-04-28T04:45:05;97011.00;;;7.47;73.56
20930;BME280;21895;47.072;15.132;2023-04-28T04:47:32;97016.00;;;7.53;73.41
20930;BME280;21895;47.072;15.132;2023-04-28T04:49:59;97023.00;;;7.51;73.08
20930;BME280;21895;47.072;15.132;2023-04-28T04:52:26;97025.00;;;7.48;73.39
20930;BME280;21895;47.072;15.132;2023-04-28T04:54:52;97017.00;;;7.61;73.74
20930;BME280;21895;47.072;15.132;2023-04-28T04:57:19;97015.00;;;7.64;73.83
20930;BME280;21895;47.072;15.132;2023-04-28T04:59:46;97015.00;;;7.79;73.65
20930;BME280;21895;47.072;15.132;2023-04-28T05:02:12;97018.00;;;7.83;73.47
20930;BME280;21895;47.072;15.132;2023-04-28T05:04:39;97017.00;;;7.97;73.32
20930;BME280;21895;47.072;15.132;2023-04-28T05:07:05;97011.00;;;7.99;73.72
20930;BME280;21895;47.072;15.132;2023-04-28T05:09:32;97007.00;;;8.27;73.25
20930;BME280;21895;47.072;15.132;2023-04-28T05:11:59;97001.00;;;8.30;72.95
20930;BME280;21895;47.072;15.132;2023-04-28T05:14:25;97004.00;;;8.26;73.42
20930;BME280;21895;47.072;15.132;2023-04-28T05:16:52;97001.00;;;8.39;73.15
20930;BME280;21895;47.072;15.132;2023-04-28T05:19:19;97004.00;;;8.59;72.65
20930;BME280;21895;47.072;15.132;2023-04-28T05:21:45;96999.00;;;8.67;72.36
20930;BME280;21895;47.072;15.132;2023-04-28T05:24:13;96997.00;;;8.83;71.57
20930;BME280;21895;47.072;15.132;2023-04-28T05:26:40;96990.00;;;8.90;70.92
20930;BME280;21895;47.072;15.132;2023-04-28T05:29:07;96994.00;;;8.86;70.61
20930;BME280;21895;47.072;15.132;2023-04-28T05:31:34;96997.00;;;8.82;70.86
20930;BME280;21895;47.072;15.132;2023-04-28T05:34:00;96992.00;;;9.04;70.29
20930;BME280;21895;47.072;15.132;2023-04-28T05:36:27;96993.00;;;9.00;70.35
20930;BME280;21895;47.072;15.132;2023-04-28T05:38:53;96978.00;;;9.06;69.57
20930;BME280;21895;47.072;15.132;2023-04-28T05:41:20;96993.00;;;8.95;69.59
20930;BME280;21895;47.072;15.132;2023-04-28T05:43:46;96985.00;;;9.05;69.40
20930;BME280;21895;47.072;15.132;2023-04-28T05:46:16;96985.00;;;9.03;69.59
20930;BME280;21895;47.072;15.132;2023-04-28T05:48:56;96987.00;;;9.24;70.35
20930;BME280;21895;47.072;15.132;2023-04-28T05:51:23;96982.00;;;9.36;70.61
20930;BME280;21895;47.072;15.132;2023-04-28T05:53:49;96986.00;;;9.39;70.58
20930;BME280;21895;47.072;15.132;2023-04-28T05:56:16;96990.00;;;9.51;70.36
20930;BME280;21895;47.072;15.132;2023-04-28T05:58:43;96979.00;;;9.60;70.29
20930;BME280;21895;47.072;15.132;2023-04-28T06:01:10;96982.00;;;9.58;70.62
20930;BME280;21895;47.072;15.132;2023-04-28T06:03:37;96985.00;;;9.66;70.38
20930;BME280;21895;47.072;15.132;2023-04-28T06:06:03;96978.00;;;9.82;70.12
20930;BME280;21895;47.072;15.132;2023-04-28T06:08:36;96985.00;;;9.97;68.86
20930;BME280;21895;47.072;15.132;2023-04-28T06:11:03;96988.00;;;10.05;68.01
20930;BME280;21895;47.072;15.132;2023-04-28T06:13:29;96981.00;;;10.21;67.80
20930;BME280;21895;47.072;15.132;2023-04-28T06:15:56;96990.00;;;10.35;67.13
20930;BME280;21895;47.072;15.132;2023-04-28T06:18:23;96987.00;;;10.38;66.30
20930;BME280;21895;47.072;15.132;2023-04-28T06:20:49;96990.00;;;10.43;66.65
20930;BME280;21895;47.072;15.132;2023-04-28T06:23:16;96978.00;;;10.56;65.53
20930;BME280;21895;47.072;15.132;2023-04-28T06:25:42;96984.00;;;10.66;65.76
20930;BME280;21895;47.072;15.132;2023-04-28T06:28:09;96975.00;;;10.79;65.25
20930;BME280;21895;47.072;15.132;2023-04-28T06:30:37;96984.00;;;10.88;64.83
20930;BME280;21895;47.072;15.132;2023-04-28T06:33:04;96984.00;;;10.88;63.68
20930;BME280;21895;47.072;15.132;2023-04-28T06:35:30;96980.00;;;10.90;63.32
20930;BME280;21895;47.072;15.132;2023-04-28T06:37:57;96975.00;;;10.95;63.90
20930;BME280;21895;47.072;15.132;2023-04-28T06:40:23;96973.00;;;11.03;63.09
20930;BME280;21895;47.072;15.132;2023-04-28T06:42:50;96973.00;;;11.09;62.82
20930;BME280;21895;47.072;15.132;2023-04-28T06:45:17;96980.00;;;11.14;62.35
20930;BME280;21895;47.072;15.132;2023-04-28T06:47:43;96980.00;;;11.09;62.63
20930;BME280;21895;47.072;15.132;2023-04-28T06:50:10;96987.00;;;11.06;62.72
20930;BME280;21895;47.072;15.132;2023-04-28T06:52:37;96995.00;;;11.13;62.86
20930;BME280;21895;47.072;15.132;2023-04-28T06:55:09;96991.00;;;11.21;62.97
20930;BME280;21895;47.072;15.132;2023-04-28T06:57:35;96979.00;;;11.23;62.78
20930;BME280;21895;47.072;15.132;2023-04-28T07:00:04;96980.00;;;11.30;62.55
20930;BME280;21895;47.072;15.132;2023-04-28T07:02:30;96977.00;;;11.42;63.76
20930;BME280;21895;47.072;15.132;2023-04-28T07:04:57;96981.00;;;11.41;64.22
20930;BME280;21895;47.072;15.132;2023-04-28T07:07:24;96984.00;;;11.51;64.02
20930;BME280;21895;47.072;15.132;2023-04-28T07:09:51;96980.00;;;11.52;64.37
20930;BME280;21895;47.072;15.132;2023-04-28T07:12:18;96979.00;;;11.55;63.52
20930;BME280;21895;47.072;15.132;2023-04-28T07:14:45;96980.00;;;11.69;62.26
20930;BME280;21895;47.072;15.132;2023-04-28T07:17:11;96969.00;;;11.72;63.66
20930;BME280;21895;47.072;15.132;2023-04-28T07:19:38;96971.00;;;11.75;63.85
20930;BME280;21895;47.072;15.132;2023-04-28T07:22:04;96968.00;;;11.72;63.60
20930;BME280;21895;47.072;15.132;2023-04-28T07:24:31;96972.00;;;11.86;63.12
20930;BME280;21895;47.072;15.132;2023-04-28T07:26:57;96973.00;;;11.80;63.30
20930;BME280;21895;47.072;15.132;2023-04-28T07:29:24;96963.00;;;11.82;63.64
20930;BME280;21895;47.072;15.132;2023-04-28T07:31:54;96967.00;;;11.89;62.99
20930;BME280;21895;47.072;15.132;2023-04-28T07:34:20;96966.00;;;11.90;61.65
20930;BME280;21895;47.072;15.132;2023-04-28T07:36:47;96969.00;;;11.84;61.00
20930;BME280;21895;47.072;15.132;2023-04-28T07:39:13;96967.00;;;11.86;61.03
20930;BME280;21895;47.072;15.132;2023-04-28T07:41:41;96964.00;;;11.75;62.49
20930;BME280;21895;47.072;15.132;2023-04-28T07:44:07;96957.00;;;11.80;63.14
20930;BME280;21895;47.072;15.132;2023-04-28T07:46:34;96951.00;;;11.88;61.67
20930;BME280;21895;47.072;15.132;2023-04-28T07:49:01;96956.00;;;11.86;62.27
20930;BME280;21895;47.072;15.132;2023-04-28T07:51:28;96958.00;;;11.90;61.80
20930;BME280;21895;47.072;15.132;2023-04-28T07:53:55;96960.00;;;11.90;61.27
20930;BME280;21895;47.072;15.132;2023-04-28T07:56:22;96957.00;;;11.85;61.29
20930;BME280;21895;47.072;15.132;2023-04-28T07:58:50;96951.00;;;11.81;61.08
20930;BME280;21895;47.072;15.132;2023-04-28T08:01:16;96956.00;;;11.74;61.71
20930;BME280;21895;47.072;15.132;2023-04-28T08:03:43;96960.00;;;11.95;60.42
20930;BME280;21895;47.072;15.132;2023-04-28T08:06:10;96966.00;;;12.12;60.00
20930;BME280;21895;47.072;15.132;2023-04-28T08:08:38;96961.00;;;12.02;60.15
20930;BME280;21895;47.072;15.132;2023-04-28T08:11:04;96952.00;;;12.03;60.49
20930;BME280;21895;47.072;15.132;2023-04-28T08:13:32;96952.00;;;12.12;60.44
20930;BME280;21895;47.072;15.132;2023-04-28T08:15:58;96950.00;;;12.07;59.90
20930;BME280;21895;47.072;15.132;2023-04-28T08:18:28;96951.00;;;11.89;60.45
20930;BME280;21895;47.072;15.132;2023-04-28T08:20:54;96953.00;;;11.86;61.78
20930;BME280;21895;47.072;15.132;2023-04-28T08:23:21;96957.00;;;11.76;61.45
20930;BME280;21895;47.072;15.132;2023-04-28T08:25:49;96955.00;;;11.76;61.76
20930;BME280;21895;47.072;15.132;2023-04-28T08:28:15;96945.00;;;11.85;61.97
20930;BME280;21895;47.072;15.132;2023-04-28T08:30:42;96948.00;;;11.90;61.97
20930;BME280;21895;47.072;15.132;2023-04-28T08:33:08;96952.00;;;12.05;61.67
20930;BME280;21895;47.072;15.132;2023-04-28T08:35:35;96948.00;;;12.08;61.48
20930;BME280;21895;47.072;15.132;2023-04-28T08:38:01;96936.00;;;12.17;60.69
20930;BME280;21895;47.072;15.132;2023-04-28T08:40:28;96932.00;;;12.04;62.21
20930;BME280;21895;47.072;15.132;2023-04-28T08:42:56;96937.00;;;12.07;61.93
20930;BME280;21895;47.072;15.132;2023-04-28T08:45:23;96940.00;;;12.19;62.17
20930;BME280;21895;47.072;15.132;2023-04-28T08:47:55;96941.00;;;12.20;62.52
20930;BME280;21895;47.072;15.132;2023-04-28T08:50:27;96937.00;;;12.24;63.17
20930;BME280;21895;47.072;15.132;2023-04-28T08:52:56;96929.00;;;12.24;62.50
20930;BME280;21895;47.072;15.132;2023-04-28T08:55:23;96930.00;;;12.26;62.55
20930;BME280;21895;47.072;15.132;2023-04-28T08:57:51;96926.00;;;12.37;62.06
20930;BME280;21895;47.072;15.132;2023-04-28T09:00:18;96930.00;;;12.50;61.22
20930;BME280;21895;47.072;15.132;2023-04-28T09:02:44;96928.00;;;12.60;61.43
20930;BME280;21895;47.072;15.132;2023-04-28T09:05:12;96935.00;;;12.83;60.60
20930;BME280;21895;47.072;15.132;2023-04-28T09:07:40;96930.00;;;12.93;59.73
20930;BME280;21895;47.072;15.132;2023-04-28T09:10:22;96935.00;;;13.14;59.55
20930;BME280;21895;47.072;15.132;2023-04-28T09:12:54;96931.00;;;13.19;58.24
20930;BME280;21895;47.072;15.132;2023-04-28T09:15:38;96925.00;;;13.26;57.67
20930;BME280;21895;47.072;15.132;2023-04-28T09:18:07;96928.00;;;13.34;57.87
20930;BME280;21895;47.072;15.132;2023-04-28T09:20:39;96926.00;;;13.42;57.88
20930;BME280;21895;47.072;15.132;2023-04-28T09:23:20;96928.00;;;13.48;55.97
20930;BME280;21895;47.072;15.132;2023-04-28T09:26:06;96923.00;;;13.72;54.19
20930;BME280;21895;47.072;15.132;2023-04-28T09:28:34;96928.00;;;14.04;53.16
20930;BME280;21895;47.072;15.132;2023-04-28T09:31:02;96932.00;;;14.23;52.68
20930;BME280;21895;47.072;15.132;2023-04-28T09:33:29;96926.00;;;14.53;51.14
20930;BME280;21895;47.072;15.132;2023-04-28T09:35:56;96919.00;;;14.78;50.73
20930;BME280;21895;47.072;15.132;2023-04-28T09:38:22;96919.00;;;14.92;50.01
20930;BME280;21895;47.072;15.132;2023-04-28T09:41:00;96922.00;;;15.14;49.09
20930;BME280;21895;47.072;15.132;2023-04-28T09:43:35;96915.00;;;15.12;48.28
20930;BME280;21895;47.072;15.132;2023-04-28T09:46:04;96912.00;;;15.18;48.57
20930;BME280;21895;47.072;15.132;2023-04-28T09:48:36;96908.00;;;15.31;47.75
20930;BME280;21895;47.072;15.132;2023-04-28T09:51:05;96910.00;;;15.39;47.54
20930;BME280;21895;47.072;15.132;2023-04-28T09:53:33;96903.00;;;15.38;47.01
20930;BME280;21895;47.072;15.132;2023-04-28T09:56:03;96904.00;;;15.40;47.03
20930;BME280;21895;47.072;15.132;2023-04-28T09:58:30;96909.00;;;15.67;46.69
20930;BME280;21895;47.072;15.132;2023-04-28T10:01:00;96905.00;;;15.74;45.63
20930;BME280;21895;47.072;15.132;2023-04-28T10:03:30;96902.00;;;15.83;46.76
20930;BME280;21895;47.072;15.132;2023-04-28T10:05:58;96897.00;;;15.88;48.75
20930;BME280;21895;47.072;15.132;2023-04-28T10:08:25;96895.00;;;15.84;46.55
20930;BME280;21895;47.072;15.132;2023-04-28T10:10:54;96897.00;;;15.85;47.87
20930;BME280;21895;47.072;15.132;2023-04-28T10:13:23;96891.00;;;16.00;48.23
20930;BME280;21895;47.072;15.132;2023-04-28T10:15:50;96889.00;;;16.07;46.52
20930;BME280;21895;47.072;15.132;2023-04-28T10:18:24;96894.00;;;16.15;46.89
20930;BME280;21895;47.072;15.132;2023-04-28T10:20:59;96886.00;;;16.32;47.12
20930;BME280;21895;47.072;15.132;2023-04-28T10:23:58;96877.00;;;16.40;45.96
20930;BME280;21895;47.072;15.132;2023-04-28T10:29:03;96878.00;;;16.49;46.79
20930;BME280;21895;47.072;15.132;2023-04-28T10:31:32;96867.00;;;16.91;42.87
20930;BME280;21895;47.072;15.132;2023-04-28T10:34:21;96864.00;;;16.91;43.51
20930;BME280;21895;47.072;15.132;2023-04-28T10:36:51;96861.00;;;16.83;45.89
20930;BME280;21895;47.072;15.132;2023-04-28T10:39:20;96856.00;;;16.49;46.32
20930;BME280;21895;47.072;15.132;2023-04-28T10:41:47;96855.00;;;16.65;45.85
20930;BME280;21895;47.072;15.132;2023-04-28T10:47:17;96849.00;;;16.63;45.73
20930;BME280;21895;47.072;15.132;2023-04-28T10:51:36;96847.00;;;16.62;45.15
20930;BME280;21895;47.072;15.132;2023-04-28T10:54:09;96840.00;;;16.71;44.93
20930;BME280;21895;47.072;15.132;2023-04-28T10:56:36;96838.00;;;16.95;44.77
20930;BME280;21895;47.072;15.132;2023-04-28T10:59:24;96827.00;;;17.00;44.45
20930;BME280;21895;47.072;15.132;2023-04-28T11:01:52;96823.00;;;17.08;44.24
20930;BME280;21895;47.072;15.132;2023-04-28T11:04:18;96818.00;;;17.30;43.01
20930;BME280;21895;47.072;15.132;2023-04-28T11:06:47;96816.00;;;17.36;42.83
20930;BME280;21895;47.072;15.132;2023-04-28T11:09:54;96805.00;;;17.56;43.55
20930;BME280;21895;47.072;15.132;2023-04-28T11:12:21;96806.00;;;17.88;41.86
20930;BME280;21895;47.072;15.132;2023-04-28T11:14:47;96804.00;;;17.93;41.76
20930;BME280;21895;47.072;15.132;2023-04-28T11:17:14;96796.00;;;18.02;41.28
20930;BME280;21895;47.072;15.132;2023-04-28T11:19:45;96791.00;;;18.17;41.74
20930;BME280;21895;47.072;15.132;2023-04-28T11:22:19;96783.00;;;18.16;41.93
20930;BME280;21895;47.072;15.132;2023-04-28T11:25:01;96786.00;;;18.37;40.89
20930;BME280;21895;47.072;15.132;2023-04-28T11:27:32;96773.00;;;18.35;40.72
20930;BME280;21895;47.072;15.132;2023-04-28T11:29:59;96766.00;;;18.27;40.77
20930;BME280;21895;47.072;15.132;2023-04-28T11:32:34;96771.00;;;18.47;41.06
20930;BME280;21895;47.072;15.132;2023-04-28T11:35:02;96773.00;;;18.54;41.04
20930;BME280;21895;47.072;15.132;2023-04-28T11:37:34;96759.00;;;18.74;39.96
20930;BME280;21895;47.072;15.132;2023-04-28T11:40:10;96754.00;;;18.74;39.86
20930;BME280;21895;47.072;15.132;2023-04-28T11:42:47;96743.00;;;18.67;40.51
20930;BME280;21895;47.072;15.132;2023-04-28T11:45:13;96747.00;;;18.85;39.94
20930;BME280;21895;47.072;15.132;2023-04-28T11:47:40;96747.00;;;18.39;40.24
20930;BME280;21895;47.072;15.132;2023-04-28T11:50:07;96743.00;;;18.40;42.33
20930;BME280;21895;47.072;15.132;2023-04-28T11:52:34;96738.00;;;18.50;41.26
20930;BME280;21895;47.072;15.132;2023-04-28T11:55:00;96740.00;;;18.53;41.47
20930;BME280;21895;47.072;15.132;2023-04-28T11:57:27;96743.00;;;18.67;41.38
20930;BME280;21895;47.072;15.132;2023-04-28T12:00:14;96740.00;;;18.52;41.33
20930;BME280;21895;47.072;15.132;2023-04-28T12:02:46;96743.00;;;18.36;42.26
20930;BME280;21895;47.072;15.132;2023-04-28T12:05:14;96736.00;;;18.30;41.79
20930;BME280;21895;47.072;15.132;2023-04-28T12:07:42;96728.00;;;18.25;41.52
20930;BME280;21895;47.072;15.132;2023-04-28T12:10:14;96730.00;;;18.21;41.89
20930;BME280;21895;47.072;15.132;2023-04-28T12:12:45;96725.00;;;18.18;42.22
20930;BME280;21895;47.072;15.132;2023-04-28T12:15:20;96731.00;;;18.27;41.30
20930;BME280;21895;47.072;15.132;2023-04-28T12:17:48;96729.00;;;18.40;41.43
20930;BME280;21895;47.072;15.132;2023-04-28T12:20:36;96732.00;;;18.21;42.06
20930;BME280;21895;47.072;15.132;2023-04-28T12:23:04;96733.00;;;18.03;42.12
20930;BME280;21895;47.072;15.132;2023-04-28T12:25:31;96738.00;;;17.75;43.18
20930;BME280;21895;47.072;15.132;2023-04-28T12:28:05;96740.00;;;17.66;43.00
20930;BME280;21895;47.072;15.132;2023-04-28T12:30:35;96737.00;;;17.68;43.33
20930;BME280;21895;47.072;15.132;2023-04-28T12:33:05;96732.00;;;17.46;43.91
20930;BME280;21895;47.072;15.132;2023-04-28T12:35:32;96739.00;;;17.38;44.07
20930;BME280;21895;47.072;15.132;2023-04-28T12:37:58;96740.00;;;17.35;43.93
20930;BME280;21895;47.072;15.132;2023-04-28T12:40:25;96736.00;;;17.19;45.11
20930;BME280;21895;47.072;15.132;2023-04-28T12:42:52;96737.00;;;17.44;44.78
20930;BME280;21895;47.072;15.132;2023-04-28T12:45:18;96728.00;;;17.60;44.21
20930;BME280;21895;47.072;15.132;2023-04-28T12:47:45;96726.00;;;17.59;43.15
20930;BME280;21895;47.072;15.132;2023-04-28T12:50:12;96724.00;;;17.60;43.56
20930;BME280;21895;47.072;15.132;2023-04-28T12:52:38;96726.00;;;17.63;43.35
20930;BME280;21895;47.072;15.132;2023-04-28T12:55:06;96718.00;;;17.42;43.95
20930;BME280;21895;47.072;15.132;2023-04-28T12:57:33;96712.00;;;17.61;43.79
20930;BME280;21895;47.072;15.132;2023-04-28T13:00:07;96713.00;;;17.41;43.84
20930;BME280;21895;47.072;15.132;2023-04-28T13:02:33;96710.00;;;17.42;44.52
20930;BME280;21895;47.072;15.132;2023-04-28T13:05:00;96705.00;;;17.40;43.93
20930;BME280;21895;47.072;15.132;2023-04-28T13:07:28;96706.00;;;17.35;45.55